createdAt,value
2017-06-21T00:01:13.700Z,1013.31
2017-06-21T00:02:10.354Z,1013.31
2017-06-21T00:03:10.293Z,1013.3
2017-06-21T00:04:10.229Z,1013.33
2017-06-21T00:05:10.168Z,1013.33
2017-06-21T00:06:10.107Z,1013.36
2017-06-21T00:07:10.044Z,1013.35
2017-06-21T00:08:09.984Z,1013.36
2017-06-21T00:09:09.922Z,1013.34
2017-06-21T00:10:09.860Z,1013.33
2017-06-21T00:11:09.816Z,1013.34
2017-06-21T00:12:09.734Z,1013.32
2017-06-21T00:13:09.673Z,1013.31
2017-06-21T00:14:09.612Z,1013.24
2017-06-21T00:15:09.570Z,1013.24
2017-06-21T00:16:09.508Z,1013.26
2017-06-21T00:17:09.427Z,1013.26
2017-06-21T00:18:09.385Z,1013.31
2017-06-21T00:19:09.304Z,1013.3
2017-06-21T00:20:09.260Z,1013.29
2017-06-21T00:21:09.201Z,1013.3
2017-06-21T00:22:09.139Z,1013.3
2017-06-21T00:23:09.057Z,1013.33
2017-06-21T00:24:09.014Z,1013.3
2017-06-21T00:25:08.935Z,1013.3
2017-06-21T00:26:08.872Z,1013.33
2017-06-21T00:27:08.811Z,1013.28
2017-06-21T00:28:08.769Z,1013.27
2017-06-21T00:29:08.708Z,1013.25
2017-06-21T00:30:08.646Z,1013.23
2017-06-21T00:31:08.584Z,1013.28
2017-06-21T00:32:08.503Z,1013.31
2017-06-21T00:33:08.461Z,1013.31
2017-06-21T00:34:08.381Z,1013.35
2017-06-21T00:35:08.321Z,1013.36
2017-06-21T00:36:08.259Z,1013.34
2017-06-21T00:37:08.346Z,1013.3
2017-06-21T00:38:08.135Z,1013.35
2017-06-21T00:39:08.076Z,1013.33
2017-06-21T00:40:08.013Z,1013.27
2017-06-21T00:41:07.950Z,1013.28
2017-06-21T00:42:07.889Z,1013.26
2017-06-21T00:43:07.828Z,1013.28
2017-06-21T00:44:07.766Z,1013.26
2017-06-21T00:45:07.704Z,1013.3
2017-06-21T00:46:07.643Z,1013.33
2017-06-21T00:47:07.582Z,1013.34
2017-06-21T00:48:07.519Z,1013.35
2017-06-21T00:49:07.457Z,1013.31
2017-06-21T00:50:07.397Z,1013.25
2017-06-21T00:51:07.335Z,1013.28
2017-06-21T00:52:07.272Z,1013.24
2017-06-21T00:53:07.210Z,1013.25
2017-06-21T00:54:07.149Z,1013.27
2017-06-21T00:55:07.087Z,1013.26
2017-06-21T00:56:07.026Z,1013.27
2017-06-21T00:57:06.966Z,1013.29
2017-06-21T00:58:06.907Z,1013.29
2017-06-21T00:59:06.840Z,1013.31
2017-06-21T01:00:06.780Z,1013.31
2017-06-21T01:01:06.718Z,1013.25
2017-06-21T01:02:06.657Z,1013.28
2017-06-21T01:03:06.595Z,1013.24
2017-06-21T01:04:06.533Z,1013.26
2017-06-21T01:05:06.472Z,1013.26
2017-06-21T01:06:06.409Z,1013.26
2017-06-21T01:07:06.348Z,1013.25
2017-06-21T01:08:06.287Z,1013.26
2017-06-21T01:09:06.226Z,1013.31
2017-06-21T01:10:06.163Z,1013.28
2017-06-21T01:11:06.101Z,1013.31
2017-06-21T01:12:06.040Z,1013.27
2017-06-21T01:13:05.979Z,1013.25
2017-06-21T01:14:05.916Z,1013.26
2017-06-21T01:15:05.855Z,1013.22
2017-06-21T01:16:05.794Z,1013.24
2017-06-21T01:17:05.732Z,1013.26
2017-06-21T01:18:05.670Z,1013.27
2017-06-21T01:19:05.609Z,1013.26
2017-06-21T01:20:05.547Z,1013.23
2017-06-21T01:21:05.495Z,1013.25
2017-06-21T01:22:05.433Z,1013.21
2017-06-21T01:23:05.362Z,1013.2
2017-06-21T01:24:05.310Z,1013.22
2017-06-21T01:25:05.249Z,1013.2
2017-06-21T01:26:05.177Z,1013.17
2017-06-21T01:27:05.117Z,1013.22
2017-06-21T01:28:05.055Z,1013.21
2017-06-21T01:29:04.992Z,1013.2
2017-06-21T01:30:04.934Z,1013.2
2017-06-21T01:31:04.879Z,1013.15
2017-06-21T01:32:04.807Z,1013.17
2017-06-21T01:33:04.746Z,1013.21
2017-06-21T01:34:04.683Z,1013.19
2017-06-21T01:35:04.633Z,1013.21
2017-06-21T01:36:04.562Z,1013.2
2017-06-21T01:37:04.501Z,1013.22
2017-06-21T01:38:04.449Z,1013.21
2017-06-21T01:39:04.376Z,1013.19
2017-06-21T01:40:04.314Z,1013.2
2017-06-21T01:41:04.255Z,1013.18
2017-06-21T01:42:04.192Z,1013.15
2017-06-21T01:43:04.139Z,1013.15
2017-06-21T01:44:04.218Z,1013.15
2017-06-21T01:45:04.006Z,1013.18
2017-06-21T01:46:03.953Z,1013.21
2017-06-21T01:47:03.883Z,1013.24
2017-06-21T01:48:03.831Z,1013.22
2017-06-21T01:49:03.770Z,1013.22
2017-06-21T01:50:03.698Z,1013.2
2017-06-21T01:51:03.645Z,1013.2
2017-06-21T01:52:03.584Z,1013.17
2017-06-21T01:53:03.523Z,1013.17
2017-06-21T01:54:03.460Z,1013.19
2017-06-21T01:55:03.389Z,1013.21
2017-06-21T01:56:03.327Z,1013.21
2017-06-21T01:57:03.266Z,1013.16
2017-06-21T01:58:03.214Z,1013.18
2017-06-21T01:59:03.142Z,1013.17
2017-06-21T02:00:03.092Z,1013.17
2017-06-21T02:01:03.019Z,1013.13
2017-06-21T02:02:02.967Z,1013.05
2017-06-21T02:03:02.895Z,1013.11
2017-06-21T02:04:02.834Z,1013.11
2017-06-21T02:05:02.770Z,1013.16
2017-06-21T02:06:02.720Z,1013.12
2017-06-21T02:07:02.650Z,1013.11
2017-06-21T02:08:02.585Z,1013.11
2017-06-21T02:09:02.524Z,1013.12
2017-06-21T02:10:02.530Z,1013.15
2017-06-21T02:11:02.414Z,1013.17
2017-06-21T02:12:02.339Z,1013.15
2017-06-21T02:13:02.289Z,1013.13
2017-06-21T02:14:02.215Z,1013.17
2017-06-21T02:15:02.505Z,1013.17
2017-06-21T02:16:02.092Z,1013.21
2017-06-21T02:17:02.031Z,1013.26
2017-06-21T02:18:01.970Z,1013.23
2017-06-21T02:19:01.907Z,1013.23
2017-06-21T02:20:01.856Z,1013.25
2017-06-21T02:21:01.795Z,1013.27
2017-06-21T02:22:01.735Z,1013.26
2017-06-21T02:23:01.674Z,1013.27
2017-06-21T02:24:01.608Z,1013.32
2017-06-21T02:25:01.537Z,1013.33
2017-06-21T02:26:01.485Z,1013.3
2017-06-21T02:27:01.423Z,1013.3
2017-06-21T02:28:01.363Z,1013.32
2017-06-21T02:29:01.291Z,1013.33
2017-06-21T02:30:01.228Z,1013.34
2017-06-21T02:31:01.176Z,1013.36
2017-06-21T02:32:01.104Z,1013.34
2017-06-21T02:33:01.043Z,1013.35
2017-06-21T02:34:00.990Z,1013.35
2017-06-21T02:35:00.928Z,1013.39
2017-06-21T02:36:00.870Z,1013.38
2017-06-21T02:37:00.807Z,1013.37
2017-06-21T02:38:00.734Z,1013.36
2017-06-21T02:39:00.672Z,1013.34
2017-06-21T02:40:00.621Z,1013.34
2017-06-21T02:41:00.558Z,1013.34
2017-06-21T02:42:00.498Z,1013.33
2017-06-21T02:43:00.425Z,1013.34
2017-06-21T02:44:00.373Z,1013.3
2017-06-21T02:45:00.303Z,1013.36
2017-06-21T02:46:00.240Z,1013.35
2017-06-21T02:47:00.188Z,1013.34
2017-06-21T02:48:00.127Z,1013.33
2017-06-21T02:49:00.064Z,1013.35
2017-06-21T02:50:00.003Z,1013.34
2017-06-21T02:50:59.932Z,1013.33
2017-06-21T02:51:59.879Z,1013.38
2017-06-21T02:52:59.807Z,1013.35
2017-06-21T02:53:59.755Z,1013.34
2017-06-21T02:54:59.695Z,1013.4
2017-06-21T02:55:59.631Z,1013.38
2017-06-21T02:56:59.570Z,1013.43
2017-06-21T02:57:59.499Z,1013.44
2017-06-21T02:58:59.446Z,1013.41
2017-06-21T02:59:59.385Z,1013.42
2017-06-21T03:00:59.323Z,1013.43
2017-06-21T03:01:59.251Z,1013.47
2017-06-21T03:02:59.198Z,1013.47
2017-06-21T03:03:59.128Z,1013.48
2017-06-21T03:04:59.076Z,1013.51
2017-06-21T03:05:59.013Z,1013.45
2017-06-21T03:06:58.952Z,1013.46
2017-06-21T03:07:58.880Z,1013.45
2017-06-21T03:08:58.819Z,1013.49
2017-06-21T03:09:58.757Z,1013.48
2017-06-21T03:10:58.695Z,1013.52
2017-06-21T03:11:58.634Z,1013.52
2017-06-21T03:12:58.572Z,1013.54
2017-06-21T03:13:58.510Z,1013.55
2017-06-21T03:14:58.450Z,1013.58
2017-06-21T03:15:58.397Z,1013.57
2017-06-21T03:16:58.337Z,1013.58
2017-06-21T03:17:58.272Z,1013.62
2017-06-21T03:18:58.211Z,1013.66
2017-06-21T03:19:58.139Z,1013.66
2017-06-21T03:20:58.087Z,1013.67
2017-06-21T03:21:58.026Z,1013.7
2017-06-21T03:22:57.954Z,1013.71
2017-06-21T03:23:57.905Z,1013.71
2017-06-21T03:24:57.830Z,1013.7
2017-06-21T03:25:57.779Z,1013.72
2017-06-21T03:26:57.717Z,1013.72
2017-06-21T03:27:57.644Z,1013.75
2017-06-21T03:28:57.584Z,1013.71
2017-06-21T03:29:57.521Z,1013.74
2017-06-21T03:30:57.460Z,1013.78
2017-06-21T03:31:57.406Z,1013.75
2017-06-21T03:32:57.334Z,1013.77
2017-06-21T03:33:57.273Z,1013.73
2017-06-21T03:34:57.221Z,1013.77
2017-06-21T03:35:57.148Z,1013.78
2017-06-21T03:36:57.088Z,1013.77
2017-06-21T03:37:57.036Z,1013.81
2017-06-21T03:38:56.974Z,1013.81
2017-06-21T03:39:56.912Z,1013.84
2017-06-21T03:40:56.849Z,1013.86
2017-06-21T03:41:56.788Z,1013.9
2017-06-21T03:42:56.715Z,1013.89
2017-06-21T03:43:56.664Z,1013.94
2017-06-21T03:44:56.602Z,1013.93
2017-06-21T03:45:56.531Z,1014
2017-06-21T03:46:56.469Z,1013.98
2017-06-21T03:47:56.407Z,1013.96
2017-06-21T03:48:56.354Z,1013.97
2017-06-21T03:49:56.283Z,1013.95
2017-06-21T03:50:56.220Z,1013.99
2017-06-21T03:51:56.158Z,1013.99
2017-06-21T03:52:56.097Z,1014.02
2017-06-21T03:53:56.044Z,1014
2017-06-21T03:54:55.972Z,1013.95
2017-06-21T03:55:55.913Z,1013.98
2017-06-21T03:56:55.860Z,1013.98
2017-06-21T03:57:55.787Z,1013.98
2017-06-21T03:58:55.725Z,1013.97
2017-06-21T03:59:55.673Z,1013.98
2017-06-21T04:00:55.602Z,1013.97
2017-06-21T04:01:55.541Z,1013.97
2017-06-21T04:02:55.477Z,1013.99
2017-06-21T04:03:55.426Z,1013.98
2017-06-21T04:04:55.353Z,1013.98
2017-06-21T04:05:55.292Z,1013.98
2017-06-21T04:06:55.241Z,1014
2017-06-21T04:07:55.169Z,1013.94
2017-06-21T04:08:55.106Z,1013.95
2017-06-21T04:09:55.054Z,1013.95
2017-06-21T04:10:54.982Z,1013.93
2017-06-21T04:11:54.922Z,1013.98
2017-06-21T04:12:54.858Z,1013.94
2017-06-21T04:13:54.796Z,1013.92
2017-06-21T04:14:54.736Z,1013.93
2017-06-21T04:15:54.672Z,1013.9
2017-06-21T04:16:54.620Z,1013.91
2017-06-21T04:17:54.550Z,1013.89
2017-06-21T04:18:54.487Z,1013.94
2017-06-21T04:19:54.425Z,1013.95
2017-06-21T04:20:54.373Z,1013.94
2017-06-21T04:21:54.302Z,1013.94
2017-06-21T04:22:54.250Z,1013.94
2017-06-21T04:23:54.187Z,1013.92
2017-06-21T04:24:54.115Z,1013.95
2017-06-21T04:25:54.064Z,1013.91
2017-06-21T04:26:54.001Z,1013.96
2017-06-21T04:27:53.940Z,1013.93
2017-06-21T04:28:53.868Z,1013.94
2017-06-21T04:29:53.806Z,1013.92
2017-06-21T04:30:53.745Z,1013.98
2017-06-21T04:31:53.683Z,1013.98
2017-06-21T04:32:53.632Z,1013.97
2017-06-21T04:33:53.569Z,1014
2017-06-21T04:34:53.496Z,1013.97
2017-06-21T04:35:53.444Z,1014.01
2017-06-21T04:36:53.383Z,1014.03
2017-06-21T04:37:53.320Z,1014.07
2017-06-21T04:38:53.258Z,1014.02
2017-06-21T04:39:53.187Z,1014.04
2017-06-21T04:40:53.125Z,1014.01
2017-06-21T04:41:53.063Z,1014
2017-06-21T04:42:53.001Z,1014
2017-06-21T04:43:52.940Z,1014.03
2017-06-21T04:44:52.880Z,1014
2017-06-21T04:45:53.127Z,1014.01
2017-06-21T04:46:52.755Z,1014
2017-06-21T04:47:52.693Z,1014.01
2017-06-21T04:48:52.631Z,1014
2017-06-21T04:49:52.580Z,1014.07
2017-06-21T04:50:52.517Z,1014.06
2017-06-21T04:51:52.457Z,1014.05
2017-06-21T04:52:52.383Z,1014.06
2017-06-21T04:53:52.323Z,1014.1
2017-06-21T04:54:52.270Z,1014.09
2017-06-21T04:55:52.199Z,1014.12
2017-06-21T04:56:52.146Z,1014.07
2017-06-21T04:57:52.075Z,1014.03
2017-06-21T04:58:52.014Z,1014.03
2017-06-21T04:59:51.961Z,1014.02
2017-06-21T05:00:51.898Z,1014.01
2017-06-21T05:01:57.296Z,1014.01
2017-06-21T05:02:51.765Z,1014.02
2017-06-21T05:03:51.703Z,1013.98
2017-06-21T05:04:51.643Z,1014.01
2017-06-21T05:05:51.590Z,1013.99
2017-06-21T05:06:51.527Z,1014.02
2017-06-21T05:07:51.455Z,1014.02
2017-06-21T05:08:51.393Z,1014.05
2017-06-21T05:09:51.333Z,1014
2017-06-21T05:10:51.270Z,1014
2017-06-21T05:11:51.208Z,1013.99
2017-06-21T05:12:51.156Z,1013.96
2017-06-21T05:13:51.084Z,1013.97
2017-06-21T05:14:51.022Z,1014
2017-06-21T05:15:50.971Z,1013.96
2017-06-21T05:16:50.899Z,1013.99
2017-06-21T05:17:50.846Z,1013.98
2017-06-21T05:18:50.785Z,1013.98
2017-06-21T05:19:50.712Z,1013.99
2017-06-21T05:20:50.662Z,1013.97
2017-06-21T05:21:50.599Z,1014
2017-06-21T05:22:50.537Z,1013.96
2017-06-21T05:23:50.466Z,1013.96
2017-06-21T05:24:50.414Z,1013.94
2017-06-21T05:25:50.341Z,1013.96
2017-06-21T05:26:50.289Z,1013.96
2017-06-21T05:27:50.228Z,1013.96
2017-06-21T05:28:50.165Z,1013.91
2017-06-21T05:29:50.093Z,1013.92
2017-06-21T05:30:50.041Z,1013.96
2017-06-21T05:31:49.981Z,1013.95
2017-06-21T05:32:49.907Z,1013.89
2017-06-21T05:33:49.857Z,1013.92
2017-06-21T05:34:49.794Z,1013.94
2017-06-21T05:35:49.732Z,1013.94
2017-06-21T05:36:49.670Z,1013.95
2017-06-21T05:37:49.599Z,1013.94
2017-06-21T05:38:49.546Z,1013.95
2017-06-21T05:39:49.474Z,1013.94
2017-06-21T05:40:49.413Z,1013.98
2017-06-21T05:41:49.361Z,1014
2017-06-21T05:42:49.299Z,1014.03
2017-06-21T05:43:49.230Z,1014.01
2017-06-21T05:44:49.174Z,1014.01
2017-06-21T05:45:49.113Z,1014.01
2017-06-21T05:46:49.053Z,1014.06
2017-06-21T05:47:48.989Z,1014.02
2017-06-21T05:48:48.927Z,1014.04
2017-06-21T05:49:48.866Z,1014.04
2017-06-21T05:50:48.803Z,1014.04
2017-06-21T05:51:48.731Z,1014.05
2017-06-21T05:52:48.669Z,1014.03
2017-06-21T05:53:48.618Z,1014.02
2017-06-21T05:54:48.555Z,1014.01
2017-06-21T05:55:48.483Z,1014.01
2017-06-21T05:56:48.433Z,1013.96
2017-06-21T05:57:48.359Z,1013.96
2017-06-21T05:58:48.297Z,1013.94
2017-06-21T05:59:48.236Z,1013.95
2017-06-21T06:00:48.175Z,1013.94
2017-06-21T06:01:48.111Z,1013.97
2017-06-21T06:02:48.049Z,1013.97
2017-06-21T06:03:47.998Z,1013.97
2017-06-21T06:04:47.927Z,1013.98
2017-06-21T06:05:47.873Z,1013.98
2017-06-21T06:06:47.812Z,1014
2017-06-21T06:07:47.741Z,1013.96
2017-06-21T06:08:47.688Z,1013.94
2017-06-21T06:09:47.625Z,1013.95
2017-06-21T06:10:47.554Z,1013.92
2017-06-21T06:11:47.492Z,1013.94
2017-06-21T06:12:47.440Z,1013.95
2017-06-21T06:13:47.379Z,1013.9
2017-06-21T06:14:47.316Z,1013.87
2017-06-21T06:15:47.254Z,1013.89
2017-06-21T06:16:47.192Z,1013.87
2017-06-21T06:17:47.119Z,1013.85
2017-06-21T06:18:47.059Z,1013.9
2017-06-21T06:19:47.006Z,1013.93
2017-06-21T06:20:46.935Z,1013.9
2017-06-21T06:21:46.874Z,1013.88
2017-06-21T06:22:46.814Z,1013.85
2017-06-21T06:23:46.748Z,1013.87
2017-06-21T06:24:46.687Z,1013.89
2017-06-21T06:25:46.625Z,1013.86
2017-06-21T06:26:46.574Z,1013.88
2017-06-21T06:27:46.511Z,1013.89
2017-06-21T06:28:46.439Z,1013.87
2017-06-21T06:29:46.387Z,1013.84
2017-06-21T06:30:46.315Z,1013.84
2017-06-21T06:31:46.264Z,1013.83
2017-06-21T06:32:46.191Z,1013.86
2017-06-21T06:33:46.129Z,1013.85
2017-06-21T06:34:46.077Z,1013.87
2017-06-21T06:35:46.006Z,1013.86
2017-06-21T06:36:45.943Z,1013.85
2017-06-21T06:37:45.882Z,1013.84
2017-06-21T06:38:45.832Z,1013.81
2017-06-21T06:39:45.758Z,1013.84
2017-06-21T06:40:45.706Z,1013.79
2017-06-21T06:41:45.632Z,1013.8
2017-06-21T06:42:45.572Z,1013.75
2017-06-21T06:43:45.519Z,1013.76
2017-06-21T06:44:45.458Z,1013.75
2017-06-21T06:45:45.396Z,1013.76
2017-06-21T06:46:45.323Z,1013.75
2017-06-21T06:47:45.260Z,1013.79
2017-06-21T06:48:45.199Z,1013.73
2017-06-21T06:49:45.150Z,1013.76
2017-06-21T06:50:45.076Z,1013.75
2017-06-21T06:51:45.026Z,1013.74
2017-06-21T06:52:44.956Z,1013.71
2017-06-21T06:53:44.899Z,1013.72
2017-06-21T06:54:44.837Z,1013.73
2017-06-21T06:55:44.778Z,1013.73
2017-06-21T06:56:44.714Z,1013.72
2017-06-21T06:57:44.651Z,1013.73
2017-06-21T06:58:44.589Z,1013.75
2017-06-21T06:59:44.528Z,1013.78
2017-06-21T07:00:44.512Z,1013.82
2017-06-21T07:01:44.404Z,1013.84
2017-06-21T07:02:44.341Z,1013.85
2017-06-21T07:03:44.267Z,1013.83
2017-06-21T07:04:44.207Z,1013.87
2017-06-21T07:05:44.145Z,1013.84
2017-06-21T07:06:44.084Z,1013.83
2017-06-21T07:07:44.032Z,1013.82
2017-06-21T07:08:43.969Z,1013.82
2017-06-21T07:09:43.909Z,1013.82
2017-06-21T07:10:43.846Z,1013.83
2017-06-21T07:11:43.784Z,1013.82
2017-06-21T07:12:43.710Z,1013.83
2017-06-21T07:13:43.650Z,1013.85
2017-06-21T07:14:43.586Z,1013.81
2017-06-21T07:15:43.534Z,1013.83
2017-06-21T07:16:43.462Z,1013.82
2017-06-21T07:17:43.401Z,1013.86
2017-06-21T07:18:43.348Z,1013.92
2017-06-21T07:19:43.276Z,1013.85
2017-06-21T07:20:43.214Z,1013.85
2017-06-21T07:21:43.157Z,1013.9
2017-06-21T07:22:43.100Z,1013.86
2017-06-21T07:23:43.038Z,1013.88
2017-06-21T07:24:42.967Z,1013.89
2017-06-21T07:25:42.915Z,1013.92
2017-06-21T07:26:42.842Z,1013.95
2017-06-21T07:27:42.780Z,1013.93
2017-06-21T07:28:42.718Z,1013.96
2017-06-21T07:29:42.654Z,1013.95
2017-06-21T07:30:42.604Z,1013.93
2017-06-21T07:31:42.533Z,1013.94
2017-06-21T07:32:42.470Z,1013.91
2017-06-21T07:33:42.418Z,1013.9
2017-06-21T07:34:42.356Z,1013.92
2017-06-21T07:35:42.315Z,1013.86
2017-06-21T07:36:42.221Z,1013.88
2017-06-21T07:37:42.184Z,1013.84
2017-06-21T07:38:42.109Z,1013.83
2017-06-21T07:39:42.108Z,1013.86
2017-06-21T07:40:41.973Z,1013.85
2017-06-21T07:41:41.921Z,1013.87
2017-06-21T07:42:41.860Z,1013.9
2017-06-21T07:43:41.798Z,1013.81
2017-06-21T07:44:41.736Z,1013.8
2017-06-21T07:45:41.664Z,1013.81
2017-06-21T07:46:41.602Z,1013.74
2017-06-21T07:47:41.539Z,1013.75
2017-06-21T07:48:41.497Z,1013.76
2017-06-21T07:49:41.446Z,1013.79
2017-06-21T07:50:41.356Z,1013.75
2017-06-21T07:51:41.292Z,1013.79
2017-06-21T07:52:41.240Z,1013.78
2017-06-21T07:53:41.169Z,1013.83
2017-06-21T07:54:41.109Z,1013.79
2017-06-21T07:55:41.055Z,1013.82
2017-06-21T07:56:40.984Z,1013.85
2017-06-21T07:57:40.931Z,1013.93
2017-06-21T07:58:40.869Z,1013.9
2017-06-21T07:59:40.808Z,1013.91
2017-06-21T08:00:40.753Z,1013.87
2017-06-21T08:01:40.677Z,1013.84
2017-06-21T08:02:40.611Z,1013.81
2017-06-21T08:03:40.559Z,1013.79
2017-06-21T08:04:40.497Z,1013.77
2017-06-21T08:05:40.426Z,1013.83
2017-06-21T08:06:40.364Z,1013.78
2017-06-21T08:07:40.303Z,1013.8
2017-06-21T08:08:40.240Z,1013.81
2017-06-21T08:09:40.179Z,1013.74
2017-06-21T08:10:40.128Z,1013.82
2017-06-21T08:11:40.054Z,1013.76
2017-06-21T08:12:40.003Z,1013.8
2017-06-21T08:13:39.940Z,1013.79
2017-06-21T08:14:39.868Z,1013.77
2017-06-21T08:15:39.808Z,1013.77
2017-06-21T08:16:39.754Z,1013.77
2017-06-21T08:17:39.692Z,1013.78
2017-06-21T08:18:39.630Z,1013.75
2017-06-21T08:19:39.559Z,1013.77
2017-06-21T08:20:39.496Z,1013.8
2017-06-21T08:21:39.436Z,1013.82
2017-06-21T08:22:39.388Z,1013.83
2017-06-21T08:23:39.323Z,1013.83
2017-06-21T08:24:39.249Z,1013.85
2017-06-21T08:25:39.198Z,1013.8
2017-06-21T08:26:39.137Z,1013.8
2017-06-21T08:27:39.074Z,1013.78
2017-06-21T08:28:39.016Z,1013.79
2017-06-21T08:29:38.943Z,1013.76
2017-06-21T08:30:38.889Z,1013.76
2017-06-21T08:31:38.826Z,1013.72
2017-06-21T08:32:38.765Z,1013.68
2017-06-21T08:33:38.704Z,1013.7
2017-06-21T08:34:38.631Z,1013.73
2017-06-21T08:35:38.579Z,1013.71
2017-06-21T08:36:38.507Z,1013.7
2017-06-21T08:37:38.456Z,1013.72
2017-06-21T08:38:38.392Z,1013.76
2017-06-21T08:39:38.321Z,1013.76
2017-06-21T08:40:38.273Z,1013.8
2017-06-21T08:41:38.199Z,1013.79
2017-06-21T08:42:38.135Z,1013.77
2017-06-21T08:43:38.073Z,1013.76
2017-06-21T08:44:38.014Z,1013.67
2017-06-21T08:45:37.960Z,1013.7
2017-06-21T08:46:37.897Z,1013.69
2017-06-21T08:47:37.827Z,1013.67
2017-06-21T08:48:37.766Z,1013.69
2017-06-21T08:49:37.702Z,1013.67
2017-06-21T08:50:37.651Z,1013.63
2017-06-21T08:51:37.580Z,1013.66
2017-06-21T08:52:37.528Z,1013.64
2017-06-21T08:53:37.465Z,1013.64
2017-06-21T08:54:37.393Z,1013.62
2017-06-21T08:55:37.332Z,1013.58
2017-06-21T08:56:37.272Z,1013.61
2017-06-21T08:57:37.207Z,1013.6
2017-06-21T08:58:37.156Z,1013.62
2017-06-21T08:59:37.085Z,1013.64
2017-06-21T09:00:37.032Z,1013.65
2017-06-21T09:01:36.970Z,1013.63
2017-06-21T09:02:36.898Z,1013.67
2017-06-21T09:03:36.837Z,1013.69
2017-06-21T09:04:36.788Z,1013.67
2017-06-21T09:05:36.714Z,1013.69
2017-06-21T09:06:36.650Z,1013.7
2017-06-21T09:07:36.599Z,1013.72
2017-06-21T09:08:36.527Z,1013.74
2017-06-21T09:09:36.476Z,1013.77
2017-06-21T09:10:36.414Z,1013.81
2017-06-21T09:11:36.351Z,1013.76
2017-06-21T09:12:36.278Z,1013.77
2017-06-21T09:13:36.227Z,1013.73
2017-06-21T09:14:36.166Z,1013.7
2017-06-21T09:15:36.093Z,1013.67
2017-06-21T09:16:36.032Z,1013.68
2017-06-21T09:17:35.980Z,1013.69
2017-06-21T09:18:35.918Z,1013.65
2017-06-21T09:19:35.856Z,1013.65
2017-06-21T09:20:35.793Z,1013.65
2017-06-21T09:21:35.723Z,1013.62
2017-06-21T09:22:35.659Z,1013.65
2017-06-21T09:23:35.608Z,1013.69
2017-06-21T09:24:35.536Z,1013.69
2017-06-21T09:25:35.474Z,1013.69
2017-06-21T09:26:35.414Z,1013.7
2017-06-21T09:27:35.350Z,1013.71
2017-06-21T09:28:35.289Z,1013.74
2017-06-21T09:29:35.237Z,1013.68
2017-06-21T09:30:35.165Z,1013.73
2017-06-21T09:31:35.114Z,1013.74
2017-06-21T09:32:35.052Z,1013.71
2017-06-21T09:33:34.979Z,1013.71
2017-06-21T09:34:34.917Z,1013.68
2017-06-21T09:35:34.855Z,1013.71
2017-06-21T09:36:34.808Z,1013.69
2017-06-21T09:37:34.741Z,1013.72
2017-06-21T09:38:34.680Z,1013.69
2017-06-21T09:39:34.608Z,1013.69
2017-06-21T09:40:34.547Z,1013.7
2017-06-21T09:41:34.494Z,1013.65
2017-06-21T09:42:34.432Z,1013.64
2017-06-21T09:43:34.370Z,1013.64
2017-06-21T09:44:34.298Z,1013.59
2017-06-21T09:45:34.246Z,1013.65
2017-06-21T09:46:34.184Z,1013.62
2017-06-21T09:47:34.112Z,1013.65
2017-06-21T09:48:34.060Z,1013.59
2017-06-21T09:49:33.990Z,1013.58
2017-06-21T09:50:33.926Z,1013.58
2017-06-21T09:51:33.864Z,1013.63
2017-06-21T09:52:33.803Z,1013.62
2017-06-21T09:53:33.750Z,1013.61
2017-06-21T09:54:33.680Z,1013.65
2017-06-21T09:55:33.627Z,1013.65
2017-06-21T09:56:33.556Z,1013.64
2017-06-21T09:57:33.505Z,1013.67
2017-06-21T09:58:33.432Z,1013.64
2017-06-21T09:59:33.378Z,1013.64
2017-06-21T10:00:33.317Z,1013.65
2017-06-21T10:01:33.256Z,1013.62
2017-06-21T10:02:33.186Z,1013.59
2017-06-21T10:03:33.131Z,1013.63
2017-06-21T10:04:33.071Z,1013.61
2017-06-21T10:05:33.008Z,1013.63
2017-06-21T10:06:32.945Z,1013.64
2017-06-21T10:07:32.910Z,1013.61
2017-06-21T10:08:32.811Z,1013.65
2017-06-21T10:09:32.750Z,1013.63
2017-06-21T10:10:32.687Z,1013.64
2017-06-21T10:11:32.637Z,1013.61
2017-06-21T10:12:32.564Z,1013.63
2017-06-21T10:13:32.505Z,1013.66
2017-06-21T10:14:32.451Z,1013.63
2017-06-21T10:15:32.387Z,1013.63
2017-06-21T10:16:32.326Z,1013.63
2017-06-21T10:17:32.264Z,1013.61
2017-06-21T10:18:32.201Z,1013.65
2017-06-21T10:19:32.140Z,1013.63
2017-06-21T10:20:32.080Z,1013.63
2017-06-21T10:21:32.005Z,1013.63
2017-06-21T10:22:31.955Z,1013.6
2017-06-21T10:23:31.891Z,1013.57
2017-06-21T10:24:31.835Z,1013.61
2017-06-21T10:25:31.758Z,1013.56
2017-06-21T10:26:31.706Z,1013.6
2017-06-21T10:27:31.640Z,1013.63
2017-06-21T10:28:31.582Z,1013.65
2017-06-21T10:29:31.520Z,1013.61
2017-06-21T10:30:31.449Z,1013.59
2017-06-21T10:31:31.599Z,1013.57
2017-06-21T10:32:31.324Z,1013.52
2017-06-21T10:33:31.272Z,1013.53
2017-06-21T10:34:31.200Z,1013.51
2017-06-21T10:35:31.139Z,1013.49
2017-06-21T10:36:31.087Z,1013.48
2017-06-21T10:37:31.025Z,1013.49
2017-06-21T10:38:30.964Z,1013.61
2017-06-21T10:39:30.892Z,1013.57
2017-06-21T10:40:31.033Z,1013.59
2017-06-21T10:41:30.778Z,1013.6
2017-06-21T10:42:30.706Z,1013.57
2017-06-21T10:43:30.652Z,1013.59
2017-06-21T10:44:30.581Z,1013.54
2017-06-21T10:45:30.529Z,1013.47
2017-06-21T10:46:30.474Z,1013.52
2017-06-21T10:47:30.409Z,1013.47
2017-06-21T10:48:30.343Z,1013.45
2017-06-21T10:49:30.432Z,1013.51
2017-06-21T10:50:30.218Z,1013.55
2017-06-21T10:51:30.158Z,1013.47
2017-06-21T10:52:30.095Z,1013.46
2017-06-21T10:53:30.043Z,1013.45
2017-06-21T10:54:29.972Z,1013.44
2017-06-21T10:55:29.900Z,1013.48
2017-06-21T10:56:29.849Z,1013.46
2017-06-21T10:57:29.776Z,1013.49
2017-06-21T10:58:29.726Z,1013.44
2017-06-21T10:59:29.662Z,1013.46
2017-06-21T11:00:29.589Z,1013.43
2017-06-21T11:01:29.527Z,1013.44
2017-06-21T11:02:29.466Z,1013.41
2017-06-21T11:03:29.617Z,1013.39
2017-06-21T11:04:29.342Z,1013.42
2017-06-21T11:05:29.291Z,1013.38
2017-06-21T11:06:29.229Z,1013.36
2017-06-21T11:07:29.157Z,1013.35
2017-06-21T11:08:29.095Z,1013.32
2017-06-21T11:09:29.046Z,1013.3
2017-06-21T11:10:28.972Z,1013.3
2017-06-21T11:11:28.910Z,1013.3
2017-06-21T11:12:28.847Z,1013.34
2017-06-21T11:13:28.785Z,1013.36
2017-06-21T11:14:28.724Z,1013.33
2017-06-21T11:15:28.674Z,1013.32
2017-06-21T11:16:28.599Z,1013.29
2017-06-21T11:17:28.537Z,1013.31
2017-06-21T11:18:28.476Z,1013.29
2017-06-21T11:19:28.423Z,1013.24
2017-06-21T11:20:28.602Z,1013.28
2017-06-21T11:21:28.294Z,1013.22
2017-06-21T11:22:28.240Z,1013.22
2017-06-21T11:23:28.165Z,1013.24
2017-06-21T11:24:28.118Z,1013.25
2017-06-21T11:25:28.046Z,1013.26
2017-06-21T11:26:27.990Z,1013.27
2017-06-21T11:27:27.919Z,1013.23
2017-06-21T11:28:27.856Z,1013.23
2017-06-21T11:29:27.794Z,1013.2
2017-06-21T11:30:27.734Z,1013.21
2017-06-21T11:31:27.680Z,1013.22
2017-06-21T11:32:27.619Z,1013.21
2017-06-21T11:33:27.558Z,1013.18
2017-06-21T11:34:27.484Z,1013.12
2017-06-21T11:35:27.433Z,1013.1
2017-06-21T11:36:27.361Z,1013.1
2017-06-21T11:37:27.309Z,1013.05
2017-06-21T11:38:27.248Z,1012.99
2017-06-21T11:39:27.175Z,1012.98
2017-06-21T11:40:27.124Z,1012.94
2017-06-21T11:41:27.062Z,1013.01
2017-06-21T11:42:26.999Z,1012.99
2017-06-21T11:43:26.929Z,1013.01
2017-06-21T11:44:26.876Z,1012.95
2017-06-21T11:45:26.813Z,1012.93
2017-06-21T11:46:26.742Z,1012.94
2017-06-21T11:47:26.682Z,1012.86
2017-06-21T11:48:26.628Z,1012.86
2017-06-21T11:49:26.569Z,1012.86
2017-06-21T11:50:26.504Z,1012.8
2017-06-21T11:51:26.443Z,1012.81
2017-06-21T11:52:26.373Z,1012.81
2017-06-21T11:53:26.308Z,1012.78
2017-06-21T11:54:26.247Z,1012.76
2017-06-21T11:55:26.194Z,1012.81
2017-06-21T11:56:26.123Z,1012.85
2017-06-21T11:57:26.061Z,1012.79
2017-06-21T11:58:26.011Z,1012.87
2017-06-21T11:59:25.935Z,1012.83
2017-06-21T12:00:25.886Z,1012.82
2017-06-21T12:01:25.824Z,1012.8
2017-06-21T12:02:25.750Z,1012.77
2017-06-21T12:03:25.688Z,1012.72
2017-06-21T12:04:25.679Z,1012.76
2017-06-21T12:05:25.575Z,1012.71
2017-06-21T12:06:25.523Z,1012.66
2017-06-21T12:07:25.451Z,1012.7
2017-06-21T12:08:25.390Z,1012.73